Time;durP1;ratioP1;P1;durP2;ratioP2;P2;SDS_P1;SDS_P2;PMS_P1;PMS_P2;Temp;Humidity;BMP_temperature;BMP_pressure;BME280_temperature;BME280_humidity;BME280_pressure;Samples;Min_cycle;Max_cycle;Signal;HPM_P1;HPM_P2
2021/10/27 00:02:46;;;;;;;;;14.00;13.50;;;;;;;;6359535;22;45621;-78
2021/10/27 00:05:23;;;;;;;;;14.25;10.50;;;;;;;;6331363;22;46057;-78
2021/10/27 00:11:34;;;;;;;;;17.50;11.25;;;;;;;;6229661;22;45655;-78
2021/10/27 00:23:47;;;;;;;;;16.25;14.50;;;;;;;;6140313;23;45452;-78
2021/10/27 00:36:18;;;;;;;;;;;;;;;;;;;;;
2021/10/27 00:44:54;;;;;;;;;14.75;12.25;;;;;;;;6046150;23;45531;-78
2021/10/27 00:48:01;;;;;;;;;18.00;12.75;;;;;;;;6117569;23;45472;-79
2021/10/27 00:50:27;;;;;;;;;9.50;9.50;;;;;;;;6142841;23;45573;-78
2021/10/27 00:56:00;;;;;;;;;12.25;11.75;;;;;;;;6215686;22;45393;-78
2021/10/27 00:58:26;;;;;;;;;17.50;11.00;;;;;;;;6390776;22;45519;-78
2021/10/27 01:00:51;;;;;;;;;13.00;12.75;;;;;;;;6389565;22;45647;-78
2021/10/27 01:03:16;;;;;;;;;14.50;13.25;;;;;;;;6393899;22;45951;-80
2021/10/27 01:05:47;;;;;;;;;15.00;13.00;;;;;;;;6392005;22;45445;-79
2021/10/27 01:08:17;;;;;;;;;12.50;11.50;;;;;;;;6392807;22;45497;-80
2021/10/27 01:10:42;;;;;;;;;12.50;11.75;;;;;;;;6397225;22;45400;-79
2021/10/27 01:13:11;;;;;;;;;15.75;13.00;;;;;;;;6396429;22;45279;-80
2021/10/27 01:56:20;;;;;;;;;14.25;12.75;;;;;;;;6121185;23;45821;-80
2021/10/27 02:02:25;;;;;;;;;14.75;14.00;;;;;;;;6141993;23;45357;-79
2021/10/27 02:17:42;;;;;;;;;15.25;15.25;;;;;;;;6143062;23;45631;-78
2021/10/27 02:26:21;;;;;;;;;20.75;16.50;;;;;;;;6187608;22;45787;-78
2021/10/27 02:29:05;;;;;;;;;22.25;15.25;;;;;;;;6264673;22;45691;-78
2021/10/27 02:34:41;;;;;;;;;18.00;15.00;;;;;;;;6267038;22;45526;-79
2021/10/27 02:37:16;;;;;;;;;19.75;15.00;;;;;;;;6264707;22;46814;-79
2021/10/27 02:43:32;;;;;;;;;13.50;12.50;;;;;;;;6204190;22;45333;-79
2021/10/27 02:46:03;;;;;;;;;19.50;16.75;;;;;;;;6197810;22;46126;-78
2021/10/27 02:48:29;;;;;;;;;19.25;14.75;;;;;;;;6201803;22;45454;-78
2021/10/27 02:51:32;;;;;;;;;19.67;14.67;;;;;;;;6204706;22;45259;-78
2021/10/27 02:54:16;;;;;;;;;17.25;12.25;;;;;;;;6201703;22;45664;-78
2021/10/27 03:00:15;;;;;;;;;15.50;14.00;;;;;;;;6203878;22;45775;-78
2021/10/27 03:12:12;;;;;;;;;14.00;12.50;;;;;;;;6204306;22;45470;-78
2021/10/27 03:14:43;;;;;;;;;10.75;10.50;;;;;;;;6200741;22;45345;-78
2021/10/27 03:17:08;;;;;;;;;18.00;14.00;;;;;;;;6201676;22;45821;-78
2021/10/27 03:19:36;;;;;;;;;15.25;14.25;;;;;;;;6204116;22;45543;-78
2021/10/27 03:22:12;;;;;;;;;13.50;11.50;;;;;;;;6202167;22;45607;-78
2021/10/27 03:24:38;;;;;;;;;15.50;12.00;;;;;;;;6202889;22;45570;-78
2021/10/27 03:27:06;;;;;;;;;13.33;11.00;;;;;;;;6203400;22;45316;-78
2021/10/27 03:29:31;;;;;;;;;10.50;10.00;;;;;;;;6202507;22;45532;-78
2021/10/27 03:32:01;;;;;;;;;15.50;15.50;;;;;;;;6203438;22;45572;-78
2021/10/27 03:34:26;;;;;;;;;13.00;12.00;;;;;;;;6204691;22;45591;-78
2021/10/27 03:37:14;;;;;;;;;15.00;15.00;;;;;;;;6203360;22;45379;-78
2021/10/27 03:39:39;;;;;;;;;14.50;11.50;;;;;;;;6202919;22;45447;-78
2021/10/27 03:42:04;;;;;;;;;13.67;9.67;;;;;;;;6201296;22;45554;-78
2021/10/27 03:44:41;;;;;;;;;15.25;11.75;;;;;;;;6199906;22;45341;-78
2021/10/27 03:47:09;;;;;;;;;17.00;13.00;;;;;;;;6340942;22;45933;-78
2021/10/27 03:49:34;;;;;;;;;13.50;13.50;;;;;;;;6361371;22;45340;-78
2021/10/27 03:52:01;;;;;;;;;15.50;12.00;;;;;;;;6328612;22;47406;-78
2021/10/27 03:54:28;;;;;;;;;19.00;11.75;;;;;;;;6359861;22;45309;-78
2021/10/27 03:56:54;;;;;;;;;13.00;12.25;;;;;;;;6359740;22;45966;-78
2021/10/27 03:59:19;;;;;;;;;20.00;13.75;;;;;;;;6358789;22;45654;-78
2021/10/27 04:01:47;;;;;;;;;16.25;13.25;;;;;;;;6332034;22;46197;-78
2021/10/27 04:04:15;;;;;;;;;12.75;12.50;;;;;;;;6357555;22;45472;-79
2021/10/27 04:06:40;;;;;;;;;14.00;11.50;;;;;;;;6356976;22;45391;-79
2021/10/27 04:09:25;;;;;;;;;13.33;12.00;;;;;;;;6360553;22;45323;-80
2021/10/27 04:36:16;;;;;;;;;13.50;11.50;;;;;;;;6358724;22;46143;-79
2021/10/27 05:11:53;;;;;;;;;16.75;13.50;;;;;;;;6139259;23;45521;-81
2021/10/27 05:14:44;;;;;;;;;16.50;14.00;;;;;;;;6138572;23;45553;-79
2021/10/27 05:17:11;;;;;;;;;17.25;14.75;;;;;;;;6078586;23;45704;-79
2021/10/27 05:19:40;;;;;;;;;18.75;17.00;;;;;;;;6080652;23;45495;-82
2021/10/27 05:22:06;;;;;;;;;15.50;13.50;;;;;;;;6087439;22;46611;-81
2021/10/27 05:24:31;;;;;;;;;17.75;14.00;;;;;;;;6229526;22;45738;-84
2021/10/27 05:27:44;;;;;;;;;19.50;17.25;;;;;;;;6236171;22;45779;-80
2021/10/27 05:30:30;;;;;;;;;18.75;17.00;;;;;;;;6083066;23;45525;-79
2021/10/27 05:39:29;;;;;;;;;16.00;14.00;;;;;;;;5998471;23;45859;-79
2021/10/27 05:45:19;;;;;;;;;18.00;15.00;;;;;;;;6001067;23;45980;-80
2021/10/27 05:47:56;;;;;;;;;17.50;15.50;;;;;;;;5974705;23;45347;-82
2021/10/27 05:55:36;;;;;;;;;18.00;16.50;;;;;;;;5997656;23;45440;-81
2021/10/27 06:03:32;;;;;;;;;17.50;17.25;;;;;;;;6330202;22;45728;-78
2021/10/27 06:06:28;;;;;;;;;21.75;18.00;;;;;;;;6365702;22;45440;-77
2021/10/27 06:08:55;;;;;;;;;22.25;14.00;;;;;;;;6344664;22;45879;-76
2021/10/27 06:11:26;;;;;;;;;19.50;13.50;;;;;;;;6358309;22;45566;-77
2021/10/27 06:24:12;;;;;;;;;23.00;18.75;;;;;;;;6307356;22;45769;-77
2021/10/27 06:26:37;;;;;;;;;24.67;17.33;;;;;;;;6356745;22;47049;-76
2021/10/27 06:29:06;;;;;;;;;23.50;17.00;;;;;;;;6357583;22;45414;-77
2021/10/27 06:31:46;;;;;;;;;;;;;;;;;;;;;
2021/10/27 06:47:22;;;;;;;;;24.25;18.00;;;;;;;;6367910;22;45739;-77
2021/10/27 06:49:49;;;;;;;;;20.50;17.00;;;;;;;;6366040;22;45460;-76
2021/10/27 06:52:17;;;;;;;;;21.50;17.00;;;;;;;;6334327;22;45586;-76
2021/10/27 06:54:49;;;;;;;;;18.00;15.25;;;;;;;;6359352;22;45703;-77
2021/10/27 06:57:25;;;;;;;;;19.00;17.25;;;;;;;;6359765;22;45646;-76
2021/10/27 07:00:01;;;;;;;;;16.25;16.25;;;;;;;;6329613;22;45411;-76
2021/10/27 07:02:54;;;;;;;;;17.25;17.00;;;;;;;;6354901;22;45758;-77
2021/10/27 07:16:03;;;;;;;;;24.25;22.75;;;;;;;;6358149;22;45825;-76
2021/10/27 07:18:28;;;;;;;;;24.00;19.25;;;;;;;;6358810;22;45615;-77
2021/10/27 07:20:54;;;;;;;;;26.00;16.75;;;;;;;;6360009;22;45669;-76
2021/10/27 07:23:19;;;;;;;;;25.25;18.50;;;;;;;;6357571;22;45472;-76
2021/10/27 07:25:46;;;;;;;;;20.33;20.33;;;;;;;;6361530;22;45371;-77
2021/10/27 07:28:11;;;;;;;;;23.25;18.25;;;;;;;;6358933;22;45446;-76
2021/10/27 07:30:37;;;;;;;;;22.00;19.75;;;;;;;;6358662;22;45457;-76
2021/10/27 07:33:02;;;;;;;;;27.25;17.50;;;;;;;;6359792;22;45438;-75
2021/10/27 07:35:40;;;;;;;;;25.25;21.50;;;;;;;;6358184;22;45654;-76
2021/10/27 07:40:49;;;;;;;;;37.00;20.50;;;;;;;;6361243;22;45457;-76
2021/10/27 07:43:24;;;;;;;;;26.75;22.25;;;;;;;;6329276;22;45355;-76
2021/10/27 07:45:49;;;;;;;;;21.50;18.25;;;;;;;;6359607;22;45791;-76
2021/10/27 07:48:15;;;;;;;;;34.75;25.25;;;;;;;;6356006;22;45409;-76
2021/10/27 07:50:41;;;;;;;;;26.00;19.00;;;;;;;;6357967;22;45366;-77
2021/10/27 07:53:13;;;;;;;;;33.25;27.25;;;;;;;;6359713;22;45519;-80
2021/10/27 07:55:42;;;;;;;;;29.50;25.25;;;;;;;;6359512;22;45540;-78
2021/10/27 07:58:08;;;;;;;;;29.25;24.50;;;;;;;;6357418;22;45704;-77
2021/10/27 08:00:34;;;;;;;;;27.75;25.25;;;;;;;;6359854;22;45457;-77
2021/10/27 08:03:19;;;;;;;;;23.25;22.25;;;;;;;;6358823;22;45480;-77
2021/10/27 08:05:58;;;;;;;;;;;;;;;;;;;;;
2021/10/27 08:08:40;;;;;;;;;27.50;25.00;;;;;;;;6355037;22;75793;-79
2021/10/27 08:11:14;;;;;;;;;27.50;25.00;;;;;;;;6357528;22;45594;-79
2021/10/27 08:13:42;;;;;;;;;28.00;24.75;;;;;;;;6356743;22;45635;-80
2021/10/27 08:16:25;;;;;;;;;31.75;25.00;;;;;;;;6355988;22;45447;-78
2021/10/27 08:18:51;;;;;;;;;26.75;21.50;;;;;;;;6355622;22;45540;-78
2021/10/27 08:21:16;;;;;;;;;27.75;22.75;;;;;;;;6357515;22;45469;-79
2021/10/27 08:24:23;;;;;;;;;25.75;23.25;;;;;;;;6357014;22;45423;-78
2021/10/27 08:29:40;;;;;;;;;28.25;24.75;;;;;;;;6359460;22;45596;-79
2021/10/27 08:35:19;;;;;;;;;28.25;24.50;;;;;;;;6359422;22;45519;-79
2021/10/27 08:44:02;;;;;;;;;22.75;18.25;;;;;;;;6245675;22;45316;-79
2021/10/27 08:47:00;;;;;;;;;25.50;21.75;;;;;;;;6262417;22;45283;-79
2021/10/27 08:50:17;;;;;;;;;31.50;22.50;;;;;;;;6168726;23;45600;-79
2021/10/27 08:53:07;;;;;;;;;32.00;21.75;;;;;;;;6158222;22;45945;-79
2021/10/27 08:55:41;;;;;;;;;26.00;20.00;;;;;;;;6172747;22;45534;-80
2021/10/27 09:16:31;;;;;;;;;38.75;28.75;;;;;;;;6110203;23;45730;-78
2021/10/27 10:06:27;;;;;;;;;25.50;25.25;;;;;;;;6385885;22;45432;-78
2021/10/27 10:08:53;;;;;;;;;25.75;22.00;;;;;;;;6393221;22;45525;-78
2021/10/27 10:11:24;;;;;;;;;25.75;20.00;;;;;;;;6392298;22;46547;-78
2021/10/27 10:14:01;;;;;;;;;25.00;22.25;;;;;;;;6393834;22;45404;-77
2021/10/27 10:16:27;;;;;;;;;26.25;22.00;;;;;;;;6394106;22;45662;-78
2021/10/27 10:18:58;;;;;;;;;29.00;23.00;;;;;;;;6391546;22;45493;-77
2021/10/27 10:21:29;;;;;;;;;27.75;23.25;;;;;;;;6366707;22;46996;-78
2021/10/27 10:24:27;;;;;;;;;29.50;20.75;;;;;;;;6393586;22;45459;-77
2021/10/27 10:26:53;;;;;;;;;32.75;27.00;;;;;;;;6391660;22;45569;-77
2021/10/27 10:29:45;;;;;;;;;27.25;24.25;;;;;;;;6394707;22;45475;-78
2021/10/27 12:29:29;;;;;;;;;18.25;16.00;;;;;;;;6126740;23;45328;-74
2021/10/27 13:19:02;;;;;;;;;32.00;29.00;;;;;;;;6362351;22;45166;-75
2021/10/27 13:31:50;;;;;;;;;11.50;10.00;;;;;;;;6362971;22;46045;-75
2021/10/27 13:34:16;;;;;;;;;15.00;12.00;;;;;;;;6360224;22;45597;-76
2021/10/27 13:36:42;;;;;;;;;75.00;56.50;;;;;;;;6361497;22;45268;-75
2021/10/27 13:39:07;;;;;;;;;36.67;30.00;;;;;;;;6361912;22;45911;-76
2021/10/27 13:41:33;;;;;;;;;22.50;15.25;;;;;;;;6331342;22;47883;-76
2021/10/27 13:44:06;;;;;;;;;11.50;10.75;;;;;;;;6362214;22;45607;-76
2021/10/27 13:46:39;;;;;;;;;8.50;5.75;;;;;;;;6362518;22;45296;-75
2021/10/27 14:08:21;;;;;;;;;10.00;9.00;;;;;;;;6359097;22;45494;-75
2021/10/27 14:11:12;;;;;;;;;42.50;31.50;;;;;;;;6361181;22;45273;-76
2021/10/27 14:13:57;;;;;;;;;39.00;29.25;;;;;;;;6361130;22;45585;-75
2021/10/27 14:39:01;;;;;;;;;75.25;55.75;;;;;;;;6361737;22;45228;-74
2021/10/27 15:22:18;;;;;;;;;4.00;4.00;;;;;;;;6359212;22;45374;-78
2021/10/27 15:32:31;;;;;;;;;12.25;9.00;;;;;;;;6359524;22;45434;-77
2021/10/27 15:50:42;;;;;;;;;4.00;4.00;;;;;;;;6359481;22;45674;-77
2021/10/27 15:53:08;;;;;;;;;10.00;6.00;;;;;;;;6360314;22;45660;-77
2021/10/27 15:55:34;;;;;;;;;8.00;5.00;;;;;;;;6360560;22;45876;-76
2021/10/27 15:57:59;;;;;;;;;10.00;9.00;;;;;;;;6353746;22;45295;-88
2021/10/27 16:00:24;;;;;;;;;10.75;8.00;;;;;;;;6361584;22;45603;-77
2021/10/27 16:02:50;;;;;;;;;11.00;11.00;;;;;;;;6358034;22;45892;-77
2021/10/27 16:05:15;;;;;;;;;13.00;13.00;;;;;;;;6363453;22;45752;-77
2021/10/27 16:07:42;;;;;;;;;11.00;9.67;;;;;;;;6361090;22;45532;-77
2021/10/27 16:10:18;;;;;;;;;10.75;6.75;;;;;;;;6360622;22;45493;-78
2021/10/27 16:12:44;;;;;;;;;9.75;8.25;;;;;;;;6361511;22;45454;-77
2021/10/27 16:15:20;;;;;;;;;9.75;9.25;;;;;;;;6364825;22;45394;-77
2021/10/27 16:20:20;;;;;;;;;9.00;9.00;;;;;;;;6359201;22;45432;-78
2021/10/27 16:23:06;;;;;;;;;12.75;10.00;;;;;;;;6363055;22;45818;-78
2021/10/27 16:26:05;;;;;;;;;10.50;9.25;;;;;;;;6365569;22;45559;-77
2021/10/27 16:36:15;;;;;;;;;13.25;13.25;;;;;;;;6332057;22;45457;-77
2021/10/27 16:38:41;;;;;;;;;17.00;12.25;;;;;;;;6340936;22;45520;-77
2021/10/27 16:43:43;;;;;;;;;14.75;13.50;;;;;;;;6342823;22;45692;-75
2021/10/27 16:46:08;;;;;;;;;12.75;11.75;;;;;;;;6304666;22;45737;-77
2021/10/27 16:48:33;;;;;;;;;8.75;6.00;;;;;;;;6361662;22;45156;-78
2021/10/27 16:51:00;;;;;;;;;11.00;9.00;;;;;;;;6330481;22;47224;-77
2021/10/27 16:53:26;;;;;;;;;8.00;8.00;;;;;;;;6355869;22;45732;-77
2021/10/27 16:55:51;;;;;;;;;7.75;5.00;;;;;;;;6359354;22;45471;-77
2021/10/27 16:58:17;;;;;;;;;9.75;8.00;;;;;;;;6355264;22;45460;-77
2021/10/27 17:00:42;;;;;;;;;10.75;9.25;;;;;;;;6358293;22;46081;-77
2021/10/27 17:03:07;;;;;;;;;9.50;9.50;;;;;;;;6365370;22;45821;-77
2021/10/27 17:05:33;;;;;;;;;9.00;9.00;;;;;;;;6334500;22;45634;-78
2021/10/27 17:07:58;;;;;;;;;11.25;8.25;;;;;;;;6357041;22;45881;-77
2021/10/27 17:10:24;;;;;;;;;12.00;9.75;;;;;;;;6360904;22;45523;-78
2021/10/27 17:12:49;;;;;;;;;14.00;9.00;;;;;;;;6356352;22;45636;-77
2021/10/27 17:15:15;;;;;;;;;12.25;10.50;;;;;;;;6357120;22;45433;-78
2021/10/27 17:17:41;;;;;;;;;10.25;9.75;;;;;;;;6359565;22;45575;-77
2021/10/27 17:20:06;;;;;;;;;10.25;8.25;;;;;;;;6360738;22;45386;-76
2021/10/27 17:22:37;;;;;;;;;11.50;9.75;;;;;;;;6362941;22;45517;-77
2021/10/27 17:27:39;;;;;;;;;13.50;11.00;;;;;;;;6345528;22;45584;-78
2021/10/27 17:30:09;;;;;;;;;13.00;10.00;;;;;;;;6355931;22;46214;-76
2021/10/27 17:48:10;;;;;;;;;13.75;11.50;;;;;;;;6307838;22;45872;-78
2021/10/27 17:50:50;;;;;;;;;15.00;13.50;;;;;;;;6359707;22;45923;-78
2021/10/27 17:58:35;;;;;;;;;15.50;11.00;;;;;;;;6293493;22;45860;-79
2021/10/27 18:01:02;;;;;;;;;11.75;11.75;;;;;;;;6360439;22;45868;-78
2021/10/27 18:03:29;;;;;;;;;16.50;11.75;;;;;;;;6359975;22;45416;-77
2021/10/27 18:05:54;;;;;;;;;11.25;11.25;;;;;;;;6359863;22;45448;-77
2021/10/27 18:08:21;;;;;;;;;16.50;11.00;;;;;;;;6362905;22;45663;-79
2021/10/27 18:10:50;;;;;;;;;18.00;15.00;;;;;;;;6355587;22;46092;-77
2021/10/27 18:13:20;;;;;;;;;11.50;11.50;;;;;;;;6357739;22;45443;-77
2021/10/27 18:37:12;;;;;;;;;31.50;26.75;;;;;;;;6364298;22;45389;-88
2021/10/27 18:39:58;;;;;;;;;30.25;29.00;;;;;;;;6377454;22;45554;-88
2021/10/27 19:29:51;;;;;;;;;41.75;35.75;;;;;;;;6325095;22;45664;-76
2021/10/27 20:11:51;;;;;;;;;31.25;28.25;;;;;;;;6280595;22;46017;-79
2021/10/27 20:30:37;;;;;;;;;26.75;25.50;;;;;;;;6356267;22;45520;-79
2021/10/27 20:54:23;;;;;;;;;43.25;36.75;;;;;;;;6355015;22;45567;-79
2021/10/27 20:56:56;;;;;;;;;43.25;36.00;;;;;;;;6357677;22;45634;-78
2021/10/27 21:12:38;;;;;;;;;27.75;25.00;;;;;;;;6355457;22;45610;-76
2021/10/27 21:15:04;;;;;;;;;25.25;20.25;;;;;;;;6356052;22;45424;-75
2021/10/27 21:17:29;;;;;;;;;27.00;25.00;;;;;;;;6356711;22;45433;-75
2021/10/27 21:19:55;;;;;;;;;30.33;28.00;;;;;;;;6356501;22;45927;-75
2021/10/27 21:22:20;;;;;;;;;22.50;19.75;;;;;;;;6357388;22;45525;-76
2021/10/27 21:24:48;;;;;;;;;23.00;21.50;;;;;;;;6357549;22;45475;-76
2021/10/27 21:27:24;;;;;;;;;26.75;20.50;;;;;;;;6359207;22;45470;-76
2021/10/27 21:42:51;;;;;;;;;25.25;18.75;;;;;;;;6356656;22;45915;-76
2021/10/27 21:45:17;;;;;;;;;20.75;17.75;;;;;;;;6360818;22;46029;-77
2021/10/27 21:47:43;;;;;;;;;24.75;20.00;;;;;;;;6359829;22;45778;-76
2021/10/27 21:57:48;;;;;;;;;21.75;20.75;;;;;;;;6347334;22;45383;-76
2021/10/27 22:00:14;;;;;;;;;50.25;38.75;;;;;;;;6357597;22;46310;-76
2021/10/27 22:02:40;;;;;;;;;31.00;27.50;;;;;;;;6360961;22;45445;-76
2021/10/27 22:05:06;;;;;;;;;35.00;31.00;;;;;;;;6358234;22;45895;-78
2021/10/27 22:07:31;;;;;;;;;33.50;32.50;;;;;;;;6360382;22;45523;-78
2021/10/27 22:09:56;;;;;;;;;32.50;28.00;;;;;;;;6355973;22;45473;-78
2021/10/27 22:12:22;;;;;;;;;33.75;30.00;;;;;;;;6358833;22;45398;-78
2021/10/27 22:14:48;;;;;;;;;36.00;31.75;;;;;;;;6357445;22;45499;-79
2021/10/27 22:17:14;;;;;;;;;33.00;25.50;;;;;;;;6358567;22;45464;-78
2021/10/27 22:19:40;;;;;;;;;31.75;31.75;;;;;;;;6356035;22;45462;-79
2021/10/27 22:22:05;;;;;;;;;28.00;25.00;;;;;;;;6355784;22;45434;-77
2021/10/27 22:24:31;;;;;;;;;26.25;26.25;;;;;;;;6357815;22;45774;-79
2021/10/27 22:26:56;;;;;;;;;27.00;23.50;;;;;;;;6356993;22;45793;-78
2021/10/27 22:29:22;;;;;;;;;25.33;19.33;;;;;;;;6356962;22;45594;-79
2021/10/27 22:31:47;;;;;;;;;26.00;20.00;;;;;;;;6357323;22;45702;-78
2021/10/27 22:39:23;;;;;;;;;21.50;19.50;;;;;;;;6287069;22;46733;-78
2021/10/27 22:41:48;;;;;;;;;23.00;20.00;;;;;;;;6358134;22;45818;-79
2021/10/27 22:44:14;;;;;;;;;23.33;19.33;;;;;;;;6328620;22;45415;-80
2021/10/27 22:46:45;;;;;;;;;26.00;20.00;;;;;;;;6359149;22;45475;-78
2021/10/27 22:56:56;;;;;;;;;28.00;24.00;;;;;;;;6349159;22;45474;-79
2021/10/27 22:59:36;;;;;;;;;24.33;19.00;;;;;;;;6356756;22;45526;-79
2021/10/27 23:02:15;;;;;;;;;30.00;24.75;;;;;;;;6357432;22;45639;-79
2021/10/27 23:05:02;;;;;;;;;24.00;20.25;;;;;;;;6357402;22;45561;-76
2021/10/27 23:07:51;;;;;;;;;21.50;21.50;;;;;;;;6356363;22;46171;-75
2021/10/27 23:10:36;;;;;;;;;22.25;20.75;;;;;;;;6354445;22;46199;-76
2021/10/27 23:40:04;;;;;;;;;20.25;18.50;;;;;;;;6354470;22;45584;-76
2021/10/27 23:42:34;;;;;;;;;18.75;15.75;;;;;;;;6358404;22;46091;-76
2021/10/27 23:47:28;;;;;;;;;23.00;18.75;;;;;;;;6355845;22;45302;-76
2021/10/27 23:50:07;;;;;;;;;20.00;17.25;;;;;;;;6358639;22;45646;-76
2021/10/27 23:52:39;;;;;;;;;20.25;19.25;;;;;;;;6357158;22;45887;-75
2021/10/27 23:55:17;;;;;;;;;22.75;17.25;;;;;;;;6354771;22;45480;-76
2021/10/27 23:58:20;;;;;;;;;21.75;17.50;;;;;;;;6359513;22;45517;-76
